createdAt,value
2019-01-19T00:01:25.200Z,20.87
2019-01-19T00:04:04.371Z,20.20
2019-01-19T00:06:51.037Z,18.23
2019-01-19T00:09:24.109Z,17.90
2019-01-19T00:12:06.078Z,15.98
2019-01-19T00:14:32.113Z,24.97
2019-01-19T00:17:14.049Z,19.70
2019-01-19T00:19:58.525Z,21.65
2019-01-19T00:22:49.634Z,15.83
2019-01-19T00:25:31.054Z,18.10
2019-01-19T00:28:06.701Z,18.00
2019-01-19T00:30:43.132Z,19.07
2019-01-19T00:33:28.135Z,18.57
2019-01-19T00:36:07.283Z,17.92
2019-01-19T00:39:03.636Z,18.45
2019-01-19T00:41:42.206Z,18.62
2019-01-19T00:44:12.117Z,18.02
2019-01-19T00:46:41.962Z,16.57
2019-01-19T00:49:11.544Z,23.05
2019-01-19T00:51:53.086Z,17.32
2019-01-19T00:54:22.969Z,15.80
2019-01-19T00:57:04.497Z,16.00
2019-01-19T00:59:31.340Z,14.75
2019-01-19T01:02:10.033Z,16.10
2019-01-19T01:04:49.137Z,16.35
2019-01-19T01:07:33.623Z,22.93
2019-01-19T01:10:12.594Z,15.78
2019-01-19T01:12:48.698Z,18.23
2019-01-19T01:15:40.147Z,18.65
2019-01-19T01:18:12.979Z,19.70
2019-01-19T01:20:58.291Z,16.45
2019-01-19T01:23:30.878Z,49.93
2019-01-19T01:26:06.432Z,18.10
2019-01-19T01:28:44.841Z,19.32
2019-01-19T01:31:14.721Z,17.75
2019-01-19T01:33:50.528Z,15.83
2019-01-19T01:36:20.459Z,16.80
2019-01-19T01:39:11.087Z,16.10
2019-01-19T01:41:46.795Z,18.50
2019-01-19T01:44:28.542Z,16.57
2019-01-19T01:47:04.205Z,16.10
2019-01-19T01:49:34.285Z,18.55
2019-01-19T01:52:20.894Z,19.75
2019-01-19T01:54:53.734Z,22.13
2019-01-19T01:57:22.921Z,22.70
2019-01-19T01:59:58.686Z,23.40
2019-01-19T02:03:00.762Z,20.97
2019-01-19T02:05:40.033Z,19.35
2019-01-19T02:08:14.544Z,20.95
2019-01-19T02:11:02.789Z,17.02
2019-01-19T02:13:45.346Z,25.43
2019-01-19T02:16:35.380Z,19.70
2019-01-19T02:19:20.546Z,16.93
2019-01-19T02:21:56.654Z,17.03
2019-01-19T02:24:41.782Z,17.95
2019-01-19T02:27:14.411Z,17.12
2019-01-19T02:29:57.520Z,16.37
2019-01-19T02:32:30.949Z,19.73
2019-01-19T02:35:04.659Z,13.65
2019-01-19T02:37:34.537Z,16.87
2019-01-19T02:40:07.245Z,21.90
2019-01-19T02:42:46.098Z,18.73
2019-01-19T02:45:32.836Z,25.68
2019-01-19T02:48:20.537Z,16.77
2019-01-19T02:50:53.791Z,17.48
2019-01-19T02:53:38.266Z,18.67
2019-01-19T02:56:14.200Z,15.48
2019-01-19T02:58:47.160Z,14.50
2019-01-19T03:01:34.911Z,16.45
2019-01-19T03:04:16.615Z,16.70
2019-01-19T03:06:55.302Z,15.05
2019-01-19T03:09:50.128Z,15.90
2019-01-19T03:12:41.084Z,15.05
2019-01-19T03:15:26.080Z,15.08
2019-01-19T03:18:20.149Z,14.45
2019-01-19T03:21:11.811Z,14.85
2019-01-19T03:23:50.453Z,15.00
2019-01-19T03:26:29.497Z,15.63
2019-01-19T03:28:59.338Z,14.18
2019-01-19T03:31:37.975Z,17.00
2019-01-19T03:34:16.602Z,15.03
2019-01-19T03:36:49.862Z,13.40
2019-01-19T03:39:28.921Z,13.70
2019-01-19T03:42:01.532Z,17.48
2019-01-19T03:44:37.160Z,13.27
2019-01-19T03:47:07.120Z,13.93
2019-01-19T03:49:39.709Z,11.97
2019-01-19T03:52:32.073Z,14.75
2019-01-19T03:55:22.889Z,12.15
2019-01-19T03:58:12.967Z,14.75
2019-01-19T04:01:01.358Z,15.85
2019-01-19T04:03:51.161Z,19.67
2019-01-19T04:06:33.314Z,14.78
2019-01-19T04:09:12.301Z,15.58
2019-01-19T04:12:05.750Z,16.50
2019-01-19T04:14:41.212Z,13.70
2019-01-19T04:17:36.657Z,15.55
2019-01-19T04:20:18.874Z,13.35
2019-01-19T04:22:44.993Z,15.55
2019-01-19T04:25:17.884Z,13.60
2019-01-19T04:29:30.386Z,14.20
2019-01-19T04:31:56.465Z,21.63
2019-01-19T04:34:23.106Z,16.48
2019-01-19T04:36:49.677Z,14.93
2019-01-19T04:39:15.708Z,15.43
2019-01-19T04:41:41.724Z,15.90
2019-01-19T04:44:08.100Z,15.63
2019-01-19T04:46:34.205Z,15.93
2019-01-19T04:49:00.255Z,15.38
2019-01-19T04:51:26.442Z,17.32
2019-01-19T04:53:52.515Z,19.40
2019-01-19T04:56:18.545Z,16.93
2019-01-19T04:58:44.596Z,18.13
2019-01-19T05:01:10.754Z,18.00
2019-01-19T05:03:36.787Z,19.87
2019-01-19T05:06:11.696Z,18.77
2019-01-19T05:08:30.930Z,18.00
2019-01-19T05:10:57.038Z,17.43
2019-01-19T05:13:23.222Z,19.05
2019-01-19T05:15:49.271Z,16.95
2019-01-19T05:18:15.541Z,20.97
2019-01-19T05:20:41.563Z,20.17
2019-01-19T05:23:07.721Z,21.85
2019-01-19T05:25:33.768Z,22.80
2019-01-19T05:28:00.073Z,22.75
2019-01-19T05:30:26.264Z,22.50
2019-01-19T05:32:52.540Z,22.75
2019-01-19T05:35:18.557Z,24.35
2019-01-19T05:37:49.292Z,21.87
2019-01-19T05:40:15.456Z,25.82
2019-01-19T05:42:41.539Z,26.05
2019-01-19T05:45:10.268Z,26.55
2019-01-19T05:47:36.311Z,26.60
2019-01-19T05:50:11.560Z,25.75
2019-01-19T05:52:37.886Z,25.00
2019-01-19T05:55:05.863Z,26.68
2019-01-19T05:57:31.916Z,26.25
2019-01-19T05:59:58.384Z,28.83
2019-01-19T06:02:26.340Z,29.40
2019-01-19T06:04:52.361Z,29.53
2019-01-19T06:07:18.560Z,31.05
2019-01-19T06:09:44.597Z,31.20
2019-01-19T06:12:10.689Z,31.35
2019-01-19T06:14:37.200Z,29.07
2019-01-19T06:17:03.282Z,28.92
2019-01-19T06:19:29.702Z,31.20
2019-01-19T06:21:56.586Z,31.60
2019-01-19T06:24:22.663Z,34.00
2019-01-19T06:26:48.690Z,32.63
2019-01-19T06:29:14.771Z,33.73
2019-01-19T06:31:40.814Z,35.07
2019-01-19T06:34:06.858Z,34.78
2019-01-19T06:36:32.926Z,33.38
2019-01-19T06:38:58.970Z,31.48
2019-01-19T06:41:25.008Z,34.80
2019-01-19T06:43:51.044Z,36.30
2019-01-19T06:46:17.087Z,34.13
2019-01-19T06:48:43.156Z,34.90
2019-01-19T06:51:09.232Z,36.30
2019-01-19T06:53:35.274Z,36.93
2019-01-19T06:56:01.514Z,37.63
2019-01-19T06:58:27.565Z,33.05
2019-01-19T07:00:53.761Z,34.95
2019-01-19T07:03:19.881Z,34.78
2019-01-19T07:05:45.941Z,37.38
2019-01-19T07:08:12.137Z,36.13
2019-01-19T07:10:38.383Z,36.30
2019-01-19T07:13:04.528Z,38.25
2019-01-19T07:15:30.569Z,34.40
2019-01-19T07:17:56.631Z,36.68
2019-01-19T07:20:25.394Z,40.80
2019-01-19T07:22:51.429Z,37.73
2019-01-19T07:25:17.715Z,38.42
2019-01-19T07:27:43.763Z,34.78
2019-01-19T07:30:14.202Z,35.20
2019-01-19T07:32:40.281Z,34.90
2019-01-19T07:35:06.744Z,37.97
2019-01-19T07:37:32.833Z,37.15
2019-01-19T07:39:58.969Z,34.47
2019-01-19T07:42:25.020Z,36.70
2019-01-19T07:44:51.245Z,37.48
2019-01-19T07:47:17.615Z,36.58
2019-01-19T07:49:43.784Z,36.33
2019-01-19T07:52:09.832Z,37.60
2019-01-19T07:54:36.156Z,35.50
2019-01-19T07:57:02.287Z,36.75
2019-01-19T07:59:28.434Z,35.80
2019-01-19T08:01:54.771Z,37.40
2019-01-19T08:04:21.188Z,35.53
2019-01-19T08:06:47.380Z,37.25
2019-01-19T08:09:13.453Z,36.40
2019-01-19T08:11:39.521Z,37.55
2019-01-19T08:14:05.551Z,37.73
2019-01-19T08:16:31.721Z,36.65
2019-01-19T08:18:57.765Z,36.58
2019-01-19T08:21:39.490Z,37.42
2019-01-19T08:24:05.808Z,35.83
2019-01-19T08:26:31.846Z,38.55
2019-01-19T08:28:58.064Z,37.93
2019-01-19T08:31:24.297Z,37.27
2019-01-19T08:33:51.189Z,39.38
2019-01-19T08:36:17.621Z,38.08
2019-01-19T08:38:43.765Z,34.25
2019-01-19T08:41:09.814Z,35.38
2019-01-19T08:43:37.928Z,36.15
2019-01-19T08:46:04.080Z,37.30
2019-01-19T08:48:30.259Z,34.88
2019-01-19T08:50:56.312Z,37.50
2019-01-19T08:53:22.492Z,32.88
2019-01-19T08:55:48.528Z,34.25
2019-01-19T08:58:14.601Z,34.10
2019-01-19T09:00:46.667Z,34.78
2019-01-19T09:03:12.805Z,33.85
2019-01-19T09:05:38.869Z,33.60
2019-01-19T09:08:05.048Z,33.60
2019-01-19T09:10:31.167Z,32.97
2019-01-19T09:12:57.380Z,30.52
2019-01-19T09:15:24.850Z,34.10
2019-01-19T09:17:51.284Z,32.60
2019-01-19T09:20:17.647Z,32.47
2019-01-19T09:22:43.953Z,37.75
2019-01-19T09:25:12.605Z,35.55
2019-01-19T09:27:47.923Z,32.95
2019-01-19T09:30:16.735Z,38.55
2019-01-19T09:32:42.810Z,35.40
2019-01-19T09:35:09.758Z,35.63
2019-01-19T09:37:55.738Z,34.10
2019-01-19T09:40:21.860Z,33.93
2019-01-19T09:42:47.992Z,35.38
2019-01-19T09:45:16.679Z,33.75
2019-01-19T09:47:42.820Z,41.40
2019-01-19T09:50:15.197Z,42.55
2019-01-19T09:52:41.358Z,35.07
2019-01-19T09:55:07.865Z,39.80
2019-01-19T09:57:34.049Z,32.20
2019-01-19T10:00:00.234Z,32.17
2019-01-19T10:02:26.373Z,29.82
2019-01-19T10:04:52.812Z,31.33
2019-01-19T10:07:20.147Z,32.83
2019-01-19T10:09:46.248Z,31.45
2019-01-19T10:12:12.521Z,31.75
2019-01-19T10:14:39.590Z,36.35
2019-01-19T10:17:06.094Z,32.50
2019-01-19T10:19:32.116Z,40.08
2019-01-19T10:21:58.353Z,34.83
2019-01-19T10:24:24.375Z,34.03
2019-01-19T10:26:50.458Z,36.23
2019-01-19T10:29:16.975Z,36.58
2019-01-19T10:31:43.377Z,34.85
2019-01-19T10:34:09.631Z,36.90
2019-01-19T10:36:35.682Z,38.50
2019-01-19T10:39:01.730Z,36.93
2019-01-19T10:41:27.920Z,37.50
2019-01-19T10:43:54.114Z,33.80
2019-01-19T10:46:20.130Z,39.60
2019-01-19T10:48:46.294Z,40.85
2019-01-19T10:51:12.320Z,41.63
2019-01-19T10:53:38.386Z,37.48
2019-01-19T10:56:04.421Z,36.40
2019-01-19T10:58:30.464Z,38.10
2019-01-19T11:00:56.498Z,39.18
2019-01-19T11:03:22.594Z,36.38
2019-01-19T11:05:48.625Z,36.90
2019-01-19T11:08:14.745Z,37.80
2019-01-19T11:10:41.161Z,36.28
2019-01-19T11:13:07.314Z,37.58
2019-01-19T11:15:33.341Z,38.90
2019-01-19T11:17:59.495Z,31.50
2019-01-19T11:20:31.054Z,36.33
2019-01-19T11:22:59.120Z,39.73
2019-01-19T11:25:25.292Z,33.90
2019-01-19T11:27:52.635Z,37.98
2019-01-19T11:30:24.659Z,38.30
2019-01-19T11:32:50.909Z,33.58
2019-01-19T11:35:17.165Z,36.98
2019-01-19T11:37:43.245Z,35.00
2019-01-19T11:40:23.780Z,32.83
2019-01-19T11:42:49.928Z,31.33
2019-01-19T11:45:18.022Z,35.08
2019-01-19T11:47:44.061Z,40.20
2019-01-19T11:50:11.363Z,27.32
2019-01-19T11:52:37.395Z,30.30
2019-01-19T11:55:08.491Z,32.95
2019-01-19T11:57:34.537Z,31.97
2019-01-19T12:00:02.610Z,28.67
2019-01-19T12:02:36.797Z,28.07
2019-01-19T12:04:58.757Z,27.98
2019-01-19T12:07:24.897Z,30.77
2019-01-19T12:09:51.044Z,29.63
2019-01-19T12:12:17.137Z,28.47
2019-01-19T12:14:43.231Z,33.02
2019-01-19T12:17:09.266Z,26.07
2019-01-19T12:19:35.310Z,27.90
2019-01-19T12:22:01.360Z,29.72
2019-01-19T12:24:27.413Z,27.20
2019-01-19T12:26:53.525Z,25.23
2019-01-19T12:29:19.607Z,29.12
2019-01-19T12:31:45.643Z,26.57
2019-01-19T12:34:11.675Z,29.00
2019-01-19T12:36:37.822Z,27.60
2019-01-19T12:39:07.471Z,24.70
2019-01-19T12:41:33.515Z,25.48
2019-01-19T12:43:59.564Z,25.62
2019-01-19T12:46:25.618Z,25.00
2019-01-19T12:48:51.661Z,27.70
2019-01-19T12:51:18.094Z,27.02
2019-01-19T12:53:44.120Z,25.60
2019-01-19T12:56:10.257Z,24.27
2019-01-19T12:58:36.301Z,26.27
2019-01-19T13:01:03.204Z,22.75
2019-01-19T13:03:29.357Z,25.13
2019-01-19T13:06:02.485Z,25.62
2019-01-19T13:08:34.384Z,25.72
2019-01-19T13:11:17.275Z,27.13
2019-01-19T13:13:45.098Z,24.75
2019-01-19T13:16:31.691Z,25.05
2019-01-19T13:19:04.160Z,24.65
2019-01-19T13:21:58.895Z,28.52
2019-01-19T13:24:44.853Z,23.50
2019-01-19T13:27:20.782Z,23.07
2019-01-19T13:29:59.881Z,26.33
2019-01-19T13:32:44.370Z,26.33
2019-01-19T13:35:26.600Z,24.95
2019-01-19T13:38:05.641Z,25.82
2019-01-19T13:41:01.032Z,25.80
2019-01-19T13:43:40.341Z,22.15
2019-01-19T13:46:21.466Z,21.77
2019-01-19T13:49:25.469Z,23.42
2019-01-19T13:51:58.049Z,23.77
2019-01-19T13:54:33.280Z,26.80
2019-01-19T13:57:05.958Z,23.95
2019-01-19T13:59:42.088Z,24.87
2019-01-19T14:02:20.951Z,26.57
2019-01-19T14:05:07.828Z,25.15
2019-01-19T14:08:08.409Z,27.37
2019-01-19T14:10:59.578Z,30.43
2019-01-19T14:13:52.214Z,27.07
2019-01-19T14:16:28.127Z,29.07
2019-01-19T14:19:14.380Z,29.02
2019-01-19T14:22:11.345Z,27.07
2019-01-19T14:24:50.013Z,33.00
2019-01-19T14:27:32.062Z,31.00
2019-01-19T14:30:18.560Z,26.57
2019-01-19T14:32:48.472Z,28.32
2019-01-19T14:35:30.328Z,28.23
2019-01-19T14:38:21.078Z,25.62
2019-01-19T14:41:08.872Z,28.60
2019-01-19T14:43:50.680Z,30.68
2019-01-19T14:46:26.378Z,29.92
2019-01-19T14:48:59.212Z,29.63
2019-01-19T14:52:01.332Z,32.85
2019-01-19T14:54:36.866Z,30.27
2019-01-19T14:57:09.771Z,28.57
2019-01-19T14:59:59.350Z,30.73
2019-01-19T15:02:37.890Z,28.62
2019-01-19T15:05:19.236Z,31.42
2019-01-19T15:07:52.142Z,31.30
2019-01-19T15:10:30.584Z,27.62
2019-01-19T15:13:06.734Z,25.60
2019-01-19T15:15:45.957Z,25.55
2019-01-19T15:18:33.260Z,24.10
2019-01-19T15:21:26.205Z,26.85
2019-01-19T15:24:05.289Z,23.30
2019-01-19T15:26:56.117Z,26.80
2019-01-19T15:29:43.825Z,23.18
2019-01-19T15:32:19.800Z,25.80
2019-01-19T15:35:01.233Z,24.65
2019-01-19T15:37:36.905Z,26.35
2019-01-19T15:40:21.877Z,27.17
2019-01-19T15:42:52.052Z,25.55
2019-01-19T15:45:45.094Z,30.02
2019-01-19T15:48:31.954Z,31.27
2019-01-19T15:51:04.820Z,31.48
2019-01-19T15:53:47.133Z,30.72
2019-01-19T15:56:42.973Z,30.97
2019-01-19T15:59:27.761Z,32.50
2019-01-19T16:02:18.931Z,35.65
2019-01-19T16:04:55.180Z,30.27
2019-01-19T16:07:46.772Z,32.70
2019-01-19T16:10:16.644Z,31.45
2019-01-19T16:12:46.479Z,29.23
2019-01-19T16:15:41.185Z,28.75
2019-01-19T16:18:27.745Z,28.53
2019-01-19T16:20:57.615Z,29.80
2019-01-19T16:23:33.503Z,29.72
2019-01-19T16:26:16.393Z,30.68
2019-01-19T16:28:52.213Z,34.95
2019-01-19T16:31:36.784Z,31.37
2019-01-19T16:34:21.676Z,31.42
2019-01-19T16:36:54.761Z,30.55
2019-01-19T16:39:27.372Z,35.00
2019-01-19T16:42:11.829Z,33.15
2019-01-19T16:45:01.836Z,32.83
2019-01-19T16:47:34.952Z,34.60
2019-01-19T16:50:29.505Z,40.90
2019-01-19T16:53:02.545Z,34.07
2019-01-19T16:55:35.398Z,30.60
2019-01-19T16:58:14.626Z,34.20
2019-01-19T17:00:53.600Z,31.10
2019-01-19T17:03:41.336Z,30.68
2019-01-19T17:06:20.442Z,32.45
2019-01-19T17:08:59.536Z,29.83
2019-01-19T17:11:38.019Z,33.48
2019-01-19T17:14:19.704Z,29.63
2019-01-19T17:16:49.593Z,29.25
2019-01-19T17:19:47.750Z,31.17
2019-01-19T17:22:20.616Z,31.75
2019-01-19T17:24:50.440Z,30.00
2019-01-19T17:27:35.575Z,27.90
2019-01-19T17:30:31.992Z,33.02
2019-01-19T17:33:07.900Z,28.65
2019-01-19T17:35:43.539Z,28.90
2019-01-19T17:38:19.488Z,34.83
2019-01-19T17:41:07.423Z,31.42
2019-01-19T17:43:43.249Z,29.65
2019-01-19T17:46:15.901Z,27.95
2019-01-19T17:48:48.949Z,30.65
2019-01-19T17:51:33.931Z,36.38
2019-01-19T17:54:03.923Z,31.33
2019-01-19T17:56:33.928Z,32.42
2019-01-19T17:59:04.123Z,30.97
2019-01-19T18:02:15.048Z,32.93
2019-01-19T18:05:01.498Z,35.70
2019-01-19T18:07:36.958Z,31.17
2019-01-19T18:10:25.060Z,33.33
2019-01-19T18:13:06.678Z,33.98
2019-01-19T18:15:57.214Z,33.48
2019-01-19T18:18:38.933Z,40.83
2019-01-19T18:21:11.801Z,36.40
2019-01-19T18:24:11.022Z,32.15
2019-01-19T18:26:49.535Z,35.25
2019-01-19T18:29:24.524Z,33.95
2019-01-19T18:32:03.756Z,33.18
2019-01-19T18:34:33.625Z,30.35
2019-01-19T18:37:15.492Z,36.17
2019-01-19T18:40:12.907Z,33.13
2019-01-19T18:42:57.233Z,44.55
2019-01-19T18:45:27.173Z,38.10
2019-01-19T18:48:31.850Z,35.88
2019-01-19T18:51:01.819Z,37.33
2019-01-19T18:53:39.229Z,35.83
2019-01-19T18:56:27.881Z,39.10
2019-01-19T18:59:15.630Z,32.87
2019-01-19T19:01:57.484Z,39.88
2019-01-19T19:04:42.908Z,33.67
2019-01-19T19:07:35.581Z,37.45
2019-01-19T19:10:19.621Z,33.35
2019-01-19T19:12:58.023Z,34.53
2019-01-19T19:15:47.826Z,35.95
2019-01-19T19:21:35.806Z,33.83
2019-01-19T19:24:13.461Z,38.80
2019-01-19T19:27:03.643Z,38.65
2019-01-19T19:29:39.639Z,38.00
2019-01-19T19:32:43.131Z,42.65
2019-01-19T19:38:43.662Z,47.75
2019-01-19T19:41:33.429Z,44.42
2019-01-19T19:44:09.521Z,40.58
2019-01-19T19:46:57.256Z,41.73
2019-01-19T19:49:51.571Z,39.88
2019-01-19T19:52:17.610Z,40.98
2019-01-19T19:54:49.578Z,39.37
2019-01-19T19:57:15.724Z,36.80
2019-01-19T19:59:43.131Z,37.03
2019-01-19T20:02:09.261Z,41.25
2019-01-19T20:04:35.494Z,37.53
2019-01-19T20:07:01.542Z,36.33
2019-01-19T20:09:27.603Z,36.17
2019-01-19T20:11:55.670Z,39.13
2019-01-19T20:14:21.825Z,39.45
2019-01-19T20:16:49.849Z,38.40
2019-01-19T20:19:15.919Z,32.67
2019-01-19T20:21:42.110Z,38.08
2019-01-19T20:24:21.747Z,39.33
2019-01-19T20:26:48.960Z,42.58
2019-01-19T20:29:23.580Z,40.75
2019-01-19T20:31:50.811Z,39.45
2019-01-19T20:34:20.907Z,37.85
2019-01-19T20:36:51.191Z,41.55
2019-01-19T20:39:17.454Z,40.55
2019-01-19T20:41:43.696Z,39.93
2019-01-19T20:44:09.812Z,38.50
2019-01-19T20:46:37.050Z,43.58
2019-01-19T20:49:11.865Z,40.05
2019-01-19T20:51:37.958Z,34.40
2019-01-19T20:54:05.097Z,38.47
2019-01-19T20:56:31.520Z,36.17
2019-01-19T20:58:57.841Z,39.55
2019-01-19T21:01:24.076Z,36.65
2019-01-19T21:03:51.066Z,36.53
2019-01-19T21:06:26.987Z,34.53
2019-01-19T21:08:59.247Z,40.75
2019-01-19T21:11:31.190Z,38.42
2019-01-19T21:13:59.348Z,37.90
2019-01-19T21:16:25.505Z,39.35
2019-01-19T21:18:51.681Z,36.98
2019-01-19T21:21:17.737Z,41.02
2019-01-19T21:23:43.911Z,35.63
2019-01-19T21:26:10.077Z,33.78
2019-01-19T21:28:36.282Z,34.67
2019-01-19T21:31:03.042Z,34.23
2019-01-19T21:33:29.197Z,35.78
2019-01-19T21:35:55.289Z,42.33
2019-01-19T21:38:21.364Z,37.60
2019-01-19T21:40:47.503Z,40.08
2019-01-19T21:43:13.661Z,38.38
2019-01-19T21:45:39.839Z,40.15
2019-01-19T21:48:05.975Z,46.05
2019-01-19T21:50:32.085Z,38.40
2019-01-19T21:52:58.146Z,40.47
2019-01-19T21:55:24.202Z,39.20
2019-01-19T21:57:51.066Z,38.58
2019-01-19T22:00:18.842Z,38.13
2019-01-19T22:02:44.868Z,40.60
2019-01-19T22:05:11.101Z,38.53
2019-01-19T22:07:37.177Z,35.43
2019-01-19T22:10:07.767Z,38.83
2019-01-19T22:12:33.819Z,42.73
2019-01-19T22:14:59.891Z,40.17
2019-01-19T22:17:26.096Z,39.88
2019-01-19T22:19:52.222Z,42.85
2019-01-19T22:22:18.378Z,36.58
2019-01-19T22:24:44.420Z,39.38
2019-01-19T22:27:11.295Z,39.48
2019-01-19T22:29:37.384Z,42.45
2019-01-19T22:32:03.550Z,39.55
2019-01-19T22:34:29.696Z,42.53
2019-01-19T22:36:56.058Z,37.10
2019-01-19T22:39:22.550Z,43.02
2019-01-19T22:41:52.593Z,40.58
2019-01-19T22:44:19.007Z,44.63
2019-01-19T22:46:45.403Z,41.98
2019-01-19T22:49:11.806Z,44.67
2019-01-19T22:51:38.073Z,45.23
2019-01-19T22:54:04.294Z,43.95
2019-01-19T22:56:30.833Z,38.50
2019-01-19T22:58:56.989Z,41.55
2019-01-19T23:01:26.958Z,38.73
2019-01-19T23:03:53.840Z,37.88
2019-01-19T23:06:19.890Z,42.58
2019-01-19T23:08:45.970Z,42.48
2019-01-19T23:11:12.298Z,43.42
2019-01-19T23:13:38.360Z,41.08
2019-01-19T23:16:04.563Z,40.12
2019-01-19T23:18:30.629Z,44.33
2019-01-19T23:20:56.680Z,45.15
2019-01-19T23:23:22.773Z,43.33
2019-01-19T23:25:48.845Z,45.43
2019-01-19T23:28:15.265Z,46.50
2019-01-19T23:30:41.411Z,42.38
2019-01-19T23:33:07.445Z,49.93
2019-01-19T23:35:33.684Z,45.20
2019-01-19T23:37:59.750Z,50.05
2019-01-19T23:40:26.063Z,46.48
2019-01-19T23:42:52.206Z,43.73
2019-01-19T23:45:18.280Z,48.00
2019-01-19T23:47:44.452Z,46.42
2019-01-19T23:50:11.043Z,46.10
2019-01-19T23:52:37.292Z,48.85
2019-01-19T23:55:04.451Z,48.02
2019-01-19T23:57:30.564Z,48.87
2019-01-19T23:59:56.733Z,48.55
